Loudonville, Ohio
Current Conditions -  °F | °C
As of 8:52 AM on Friday 24 Oct 2014 (Local Time) from KMFD Reporting Station
Haze Haze  
Wind Chill: 38°   Ceiling: Unl
Heat Index: 38°   Visibility: 6mi
Dew Point: 37°   Wind: 3mph
Humidity: 97%   Direction: 170°S
Pressure: 30.11"   Gusts: NA
Location:  40.64°N, 82.23°W
Report Text: KMFD 241252Z 17003KT 6SM BR CLR 03/03 A3011 RMK AO2 SLP203 T00330028
Loading
Personal Weather Stations






























Interactive Weather Map
Tropical Storm Tracking
New forecast layout! Learn more

10-Day Weather Forecast

Advertisements
Track Severe Weather on mobile